Aérodrome :
LOGIN :

S'inscrire | Disclaimer

   EN    FR    IT 

 










Légende :    VFR   VFR Marginal   IFR   IFR Intensif   IFR Très Intensif
Visi : 
Plafond : 
>= 8 km
>= 3000ft
5 à 8 km
1000 à 3000 ft
1500m à 5 km
500 à 1000 ft
800 à 1500m
200 à 500 ft
< 800m
< 200 ft
Symboles :   Orages  Brouillard  Fortes neiges  Fortes précipitations  Vent > 20 kt
SIGMETs :   Divers  Orages  Givrage  Turbulence  Onde Orograph.  Cendres Volcan.







- Altitude de l'aérodrome : 45 ft
- Code IATA : CEG
- Voir les cartes d'approche


EGNR - Hawarden Chester

DERNIER METAR :
  • 231950Z 22013KT 9999 FEW028 11/07 Q1008

METARs EXPIRÉS :
  • 231920Z 23014KT 9999 FEW028 11/07 Q1008
  • 231850Z 24016KT 9999 FEW025 11/07 Q1008
  • 231820Z 25020KT 9999 FEW025 12/07 Q1008
  • 231750Z 25019KT 9999 FEW025 12/06 Q1007
  • 231720Z 24019G29KT 9999 SCT025 12/07 Q1007

TAF TAF EGNR
Valide du 23 à 18h jusqu'au 23 à 21h UTC


231659Z 2318/2321 22020G30KT 9999 SCT020
BECMG 2318/2321 19008KT
Pas de NOTAMs connus pour ce terrain.
1 SIGMET publié pour la FIR London (EGTT) :
 
Onde orographique forte
EGTT SIGMET 02 VALID 231900/232300 EGRR
EGTT LONDON FIR SEV MTW FCST WI N5443 E00205 - N5356 W00137 - N5500 W00216 - N5500 W00100 - N5500 E00153 - N5443 E00205 SFC/FL150 STNR WKN=



MET'MAP, la Météo Aéronautique d'un coup d'oeil ! - Copyright ORBIFLY Décembre 2007 - Disclaimer

ORBIFLY MET'MAP TEAM :

Programmation & Développement : Alexandra Zaïnal
Conception & Développement : Baudouin d'Aumeries
Co-Programmation & Développement : Marc-Olivier Méhu
Soutien technique & logistique : Manuel Goepfert

Contact : metmap@orbifly.com




SOURCES & CREDITS :

   NOAA